sensor_id;sensor_type;location;lat;lon;timestamp;P1;durP1;ratioP1;P2;durP2;ratioP2
77010;SDS011;65945;53.148;17.956;2024-02-14T00:00:14;76.90;;;32.80;;
77010;SDS011;65945;53.148;17.956;2024-02-14T00:03:01;77.20;;;34.60;;
77010;SDS011;65945;53.148;17.956;2024-02-14T00:05:28;92.50;;;38.70;;
77010;SDS011;65945;53.148;17.956;2024-02-14T00:07:55;93.10;;;38.30;;
77010;SDS011;65945;53.148;17.956;2024-02-14T00:10:21;89.20;;;37.00;;
77010;SDS011;65945;53.148;17.956;2024-02-14T00:12:49;95.00;;;40.20;;
77010;SDS011;65945;53.148;17.956;2024-02-14T00:15:15;79.20;;;37.40;;
77010;SDS011;65945;53.148;17.956;2024-02-14T00:17:42;87.80;;;35.30;;
77010;SDS011;65945;53.148;17.956;2024-02-14T00:20:09;78.00;;;30.20;;
77010;SDS011;65945;53.148;17.956;2024-02-14T00:22:39;80.10;;;31.30;;
77010;SDS011;65945;53.148;17.956;2024-02-14T00:25:06;85.40;;;34.60;;
77010;SDS011;65945;53.148;17.956;2024-02-14T00:27:34;75.10;;;34.90;;
77010;SDS011;65945;53.148;17.956;2024-02-14T00:30:00;74.30;;;32.20;;
77010;SDS011;65945;53.148;17.956;2024-02-14T00:32:27;72.60;;;31.40;;
77010;SDS011;65945;53.148;17.956;2024-02-14T00:34:53;81.80;;;33.70;;
77010;SDS011;65945;53.148;17.956;2024-02-14T00:37:20;75.30;;;34.70;;
77010;SDS011;65945;53.148;17.956;2024-02-14T00:39:47;75.00;;;31.80;;
77010;SDS011;65945;53.148;17.956;2024-02-14T00:42:16;80.40;;;35.10;;
77010;SDS011;65945;53.148;17.956;2024-02-14T00:44:42;76.40;;;33.70;;
77010;SDS011;65945;53.148;17.956;2024-02-14T00:47:09;73.50;;;32.90;;
77010;SDS011;65945;53.148;17.956;2024-02-14T00:49:36;80.90;;;35.00;;
77010;SDS011;65945;53.148;17.956;2024-02-14T00:52:03;75.50;;;32.70;;
77010;SDS011;65945;53.148;17.956;2024-02-14T00:54:30;84.00;;;34.10;;
77010;SDS011;65945;53.148;17.956;2024-02-14T00:56:57;80.00;;;35.10;;
77010;SDS011;65945;53.148;17.956;2024-02-14T00:59:23;77.10;;;33.80;;
77010;SDS011;65945;53.148;17.956;2024-02-14T01:01:51;79.60;;;34.40;;
77010;SDS011;65945;53.148;17.956;2024-02-14T01:04:18;73.10;;;33.00;;
77010;SDS011;65945;53.148;17.956;2024-02-14T01:06:44;79.70;;;32.20;;
77010;SDS011;65945;53.148;17.956;2024-02-14T01:09:11;78.60;;;36.30;;
77010;SDS011;65945;53.148;17.956;2024-02-14T01:11:37;68.70;;;31.90;;
77010;SDS011;65945;53.148;17.956;2024-02-14T01:14:04;74.40;;;32.00;;
77010;SDS011;65945;53.148;17.956;2024-02-14T01:16:31;82.10;;;35.40;;
77010;SDS011;65945;53.148;17.956;2024-02-14T01:18:58;76.90;;;35.20;;
77010;SDS011;65945;53.148;17.956;2024-02-14T01:21:24;79.00;;;36.50;;
77010;SDS011;65945;53.148;17.956;2024-02-14T01:23:51;76.60;;;34.30;;
77010;SDS011;65945;53.148;17.956;2024-02-14T01:26:18;79.80;;;33.00;;
77010;SDS011;65945;53.148;17.956;2024-02-14T01:28:47;69.40;;;30.20;;
77010;SDS011;65945;53.148;17.956;2024-02-14T01:31:13;59.60;;;27.00;;
77010;SDS011;65945;53.148;17.956;2024-02-14T01:33:40;59.50;;;27.30;;
77010;SDS011;65945;53.148;17.956;2024-02-14T01:36:07;73.90;;;28.70;;
77010;SDS011;65945;53.148;17.956;2024-02-14T01:38:33;69.80;;;30.90;;
77010;SDS011;65945;53.148;17.956;2024-02-14T01:41:02;64.10;;;29.80;;
77010;SDS011;65945;53.148;17.956;2024-02-14T01:43:30;56.70;;;26.00;;
77010;SDS011;65945;53.148;17.956;2024-02-14T01:46:07;69.00;;;29.90;;
77010;SDS011;65945;53.148;17.956;2024-02-14T01:48:34;65.40;;;29.10;;
77010;SDS011;65945;53.148;17.956;2024-02-14T01:51:01;76.10;;;30.70;;
77010;SDS011;65945;53.148;17.956;2024-02-14T01:53:29;62.20;;;27.00;;
77010;SDS011;65945;53.148;17.956;2024-02-14T01:55:58;62.00;;;26.10;;
77010;SDS011;65945;53.148;17.956;2024-02-14T01:58:25;71.50;;;28.00;;
77010;SDS011;65945;53.148;17.956;2024-02-14T02:00:56;70.20;;;30.80;;
77010;SDS011;65945;53.148;17.956;2024-02-14T02:03:25;61.70;;;27.90;;
77010;SDS011;65945;53.148;17.956;2024-02-14T02:05:52;64.00;;;25.80;;
77010;SDS011;65945;53.148;17.956;2024-02-14T02:08:20;51.40;;;23.10;;
77010;SDS011;65945;53.148;17.956;2024-02-14T02:10:47;56.30;;;26.20;;
77010;SDS011;65945;53.148;17.956;2024-02-14T02:13:14;50.90;;;24.20;;
77010;SDS011;65945;53.148;17.956;2024-02-14T02:15:42;59.00;;;25.80;;
77010;SDS011;65945;53.148;17.956;2024-02-14T02:18:11;51.80;;;24.90;;
77010;SDS011;65945;53.148;17.956;2024-02-14T02:20:39;55.60;;;25.40;;
77010;SDS011;65945;53.148;17.956;2024-02-14T02:23:10;56.30;;;25.90;;
77010;SDS011;65945;53.148;17.956;2024-02-14T02:25:41;57.10;;;25.70;;
77010;SDS011;65945;53.148;17.956;2024-02-14T02:28:08;62.90;;;27.60;;
77010;SDS011;65945;53.148;17.956;2024-02-14T02:30:36;58.50;;;26.10;;
77010;SDS011;65945;53.148;17.956;2024-02-14T02:33:04;52.20;;;25.10;;
77010;SDS011;65945;53.148;17.956;2024-02-14T02:35:31;58.40;;;25.50;;
77010;SDS011;65945;53.148;17.956;2024-02-14T02:37:58;55.60;;;25.90;;
77010;SDS011;65945;53.148;17.956;2024-02-14T02:40:25;59.00;;;24.30;;
77010;SDS011;65945;53.148;17.956;2024-02-14T02:42:53;54.20;;;23.80;;
77010;SDS011;65945;53.148;17.956;2024-02-14T02:45:20;52.70;;;23.80;;
77010;SDS011;65945;53.148;17.956;2024-02-14T02:47:47;56.70;;;26.00;;
77010;SDS011;65945;53.148;17.956;2024-02-14T02:50:14;59.60;;;26.50;;
77010;SDS011;65945;53.148;17.956;2024-02-14T02:52:41;55.30;;;26.30;;
77010;SDS011;65945;53.148;17.956;2024-02-14T02:55:08;59.70;;;26.30;;
77010;SDS011;65945;53.148;17.956;2024-02-14T02:57:35;46.90;;;23.50;;
77010;SDS011;65945;53.148;17.956;2024-02-14T03:00:03;53.90;;;23.80;;
77010;SDS011;65945;53.148;17.956;2024-02-14T03:02:34;49.70;;;25.30;;
77010;SDS011;65945;53.148;17.956;2024-02-14T03:05:04;50.30;;;24.50;;
77010;SDS011;65945;53.148;17.956;2024-02-14T03:07:36;49.90;;;24.70;;
77010;SDS011;65945;53.148;17.956;2024-02-14T03:10:04;48.60;;;23.40;;
77010;SDS011;65945;53.148;17.956;2024-02-14T03:12:31;52.80;;;23.80;;
77010;SDS011;65945;53.148;17.956;2024-02-14T03:15:02;47.50;;;22.80;;
77010;SDS011;65945;53.148;17.956;2024-02-14T03:17:31;53.80;;;24.50;;
77010;SDS011;65945;53.148;17.956;2024-02-14T03:19:58;38.00;;;18.60;;
77010;SDS011;65945;53.148;17.956;2024-02-14T03:22:24;41.90;;;20.60;;
77010;SDS011;65945;53.148;17.956;2024-02-14T03:24:51;48.50;;;21.40;;
77010;SDS011;65945;53.148;17.956;2024-02-14T03:27:18;51.90;;;22.30;;
77010;SDS011;65945;53.148;17.956;2024-02-14T03:29:45;48.20;;;21.30;;
77010;SDS011;65945;53.148;17.956;2024-02-14T03:32:13;47.70;;;21.40;;
77010;SDS011;65945;53.148;17.956;2024-02-14T03:34:40;45.60;;;22.80;;
77010;SDS011;65945;53.148;17.956;2024-02-14T03:37:07;45.70;;;22.40;;
77010;SDS011;65945;53.148;17.956;2024-02-14T03:39:34;48.30;;;24.30;;
77010;SDS011;65945;53.148;17.956;2024-02-14T03:42:00;52.20;;;23.40;;
77010;SDS011;65945;53.148;17.956;2024-02-14T03:44:33;41.70;;;21.80;;
77010;SDS011;65945;53.148;17.956;2024-02-14T03:47:00;42.40;;;19.00;;
77010;SDS011;65945;53.148;17.956;2024-02-14T03:49:27;52.90;;;21.60;;
77010;SDS011;65945;53.148;17.956;2024-02-14T03:51:53;41.10;;;20.90;;
77010;SDS011;65945;53.148;17.956;2024-02-14T03:54:21;46.70;;;20.30;;
77010;SDS011;65945;53.148;17.956;2024-02-14T03:56:47;45.70;;;20.80;;
77010;SDS011;65945;53.148;17.956;2024-02-14T03:59:14;49.00;;;22.00;;
77010;SDS011;65945;53.148;17.956;2024-02-14T04:01:44;44.60;;;21.60;;
77010;SDS011;65945;53.148;17.956;2024-02-14T04:04:15;51.60;;;21.80;;
77010;SDS011;65945;53.148;17.956;2024-02-14T04:06:42;49.40;;;22.90;;
77010;SDS011;65945;53.148;17.956;2024-02-14T04:09:11;45.70;;;22.90;;
77010;SDS011;65945;53.148;17.956;2024-02-14T04:11:38;49.40;;;24.30;;
77010;SDS011;65945;53.148;17.956;2024-02-14T04:14:05;47.70;;;23.80;;
77010;SDS011;65945;53.148;17.956;2024-02-14T04:16:31;37.70;;;18.60;;
77010;SDS011;65945;53.148;17.956;2024-02-14T04:18:58;45.80;;;22.10;;
77010;SDS011;65945;53.148;17.956;2024-02-14T04:21:24;47.10;;;20.30;;
77010;SDS011;65945;53.148;17.956;2024-02-14T04:23:51;47.20;;;20.80;;
77010;SDS011;65945;53.148;17.956;2024-02-14T04:26:21;47.60;;;21.70;;
77010;SDS011;65945;53.148;17.956;2024-02-14T04:28:48;48.20;;;21.10;;
77010;SDS011;65945;53.148;17.956;2024-02-14T04:31:15;51.90;;;21.60;;
77010;SDS011;65945;53.148;17.956;2024-02-14T04:33:42;44.30;;;20.90;;
77010;SDS011;65945;53.148;17.956;2024-02-14T04:36:09;51.50;;;23.50;;
77010;SDS011;65945;53.148;17.956;2024-02-14T04:38:37;48.40;;;22.70;;
77010;SDS011;65945;53.148;17.956;2024-02-14T04:41:04;42.10;;;20.00;;
77010;SDS011;65945;53.148;17.956;2024-02-14T04:43:31;46.60;;;20.80;;
77010;SDS011;65945;53.148;17.956;2024-02-14T04:45:57;44.20;;;23.70;;
77010;SDS011;65945;53.148;17.956;2024-02-14T04:48:24;54.10;;;24.90;;
77010;SDS011;65945;53.148;17.956;2024-02-14T04:50:52;58.50;;;26.00;;
77010;SDS011;65945;53.148;17.956;2024-02-14T04:53:18;56.80;;;28.30;;
77010;SDS011;65945;53.148;17.956;2024-02-14T04:55:46;53.90;;;24.70;;
77010;SDS011;65945;53.148;17.956;2024-02-14T04:58:12;56.70;;;26.80;;
77010;SDS011;65945;53.148;17.956;2024-02-14T05:00:39;56.00;;;26.10;;
77010;SDS011;65945;53.148;17.956;2024-02-14T05:03:06;57.10;;;23.30;;
77010;SDS011;65945;53.148;17.956;2024-02-14T05:05:32;51.90;;;24.00;;
77010;SDS011;65945;53.148;17.956;2024-02-14T05:08:00;62.90;;;24.40;;
77010;SDS011;65945;53.148;17.956;2024-02-14T05:10:26;55.70;;;24.30;;
77010;SDS011;65945;53.148;17.956;2024-02-14T05:12:53;51.40;;;23.60;;
77010;SDS011;65945;53.148;17.956;2024-02-14T05:15:20;53.10;;;24.10;;
77010;SDS011;65945;53.148;17.956;2024-02-14T05:17:47;54.30;;;23.50;;
77010;SDS011;65945;53.148;17.956;2024-02-14T05:20:16;53.20;;;22.60;;
77010;SDS011;65945;53.148;17.956;2024-02-14T05:22:43;56.20;;;25.30;;
77010;SDS011;65945;53.148;17.956;2024-02-14T05:25:10;60.50;;;25.80;;
77010;SDS011;65945;53.148;17.956;2024-02-14T05:27:37;57.60;;;25.10;;
77010;SDS011;65945;53.148;17.956;2024-02-14T05:30:03;51.90;;;24.00;;
77010;SDS011;65945;53.148;17.956;2024-02-14T05:32:35;62.30;;;27.80;;
77010;SDS011;65945;53.148;17.956;2024-02-14T05:35:02;51.70;;;24.40;;
77010;SDS011;65945;53.148;17.956;2024-02-14T05:37:32;52.40;;;25.80;;
77010;SDS011;65945;53.148;17.956;2024-02-14T05:39:58;60.40;;;26.30;;
77010;SDS011;65945;53.148;17.956;2024-02-14T05:42:25;55.80;;;25.40;;
77010;SDS011;65945;53.148;17.956;2024-02-14T05:44:52;52.30;;;24.70;;
77010;SDS011;65945;53.148;17.956;2024-02-14T05:47:18;68.40;;;28.10;;
77010;SDS011;65945;53.148;17.956;2024-02-14T05:49:45;50.40;;;23.30;;
77010;SDS011;65945;53.148;17.956;2024-02-14T05:52:12;60.20;;;27.90;;
77010;SDS011;65945;53.148;17.956;2024-02-14T05:54:38;55.90;;;24.80;;
77010;SDS011;65945;53.148;17.956;2024-02-14T05:57:05;57.00;;;26.40;;
77010;SDS011;65945;53.148;17.956;2024-02-14T05:59:33;47.20;;;21.90;;
77010;SDS011;65945;53.148;17.956;2024-02-14T06:02:00;54.50;;;25.30;;
77010;SDS011;65945;53.148;17.956;2024-02-14T06:04:29;53.50;;;25.00;;
77010;SDS011;65945;53.148;17.956;2024-02-14T06:06:55;57.50;;;25.00;;
77010;SDS011;65945;53.148;17.956;2024-02-14T06:09:22;41.80;;;21.30;;
77010;SDS011;65945;53.148;17.956;2024-02-14T06:11:49;50.80;;;21.60;;
77010;SDS011;65945;53.148;17.956;2024-02-14T06:14:15;48.90;;;22.30;;
77010;SDS011;65945;53.148;17.956;2024-02-14T06:16:42;47.60;;;22.80;;
77010;SDS011;65945;53.148;17.956;2024-02-14T06:19:10;45.20;;;20.50;;
77010;SDS011;65945;53.148;17.956;2024-02-14T06:21:37;41.80;;;20.40;;
77010;SDS011;65945;53.148;17.956;2024-02-14T06:24:05;44.80;;;21.40;;
77010;SDS011;65945;53.148;17.956;2024-02-14T06:26:32;41.50;;;21.20;;
77010;SDS011;65945;53.148;17.956;2024-02-14T06:28:59;41.00;;;19.70;;
77010;SDS011;65945;53.148;17.956;2024-02-14T06:31:26;44.10;;;21.40;;
77010;SDS011;65945;53.148;17.956;2024-02-14T06:33:53;47.00;;;23.20;;
77010;SDS011;65945;53.148;17.956;2024-02-14T06:36:19;43.60;;;21.70;;
77010;SDS011;65945;53.148;17.956;2024-02-14T06:38:46;48.60;;;23.10;;
77010;SDS011;65945;53.148;17.956;2024-02-14T06:41:13;50.20;;;23.90;;
77010;SDS011;65945;53.148;17.956;2024-02-14T06:43:39;42.20;;;21.00;;
77010;SDS011;65945;53.148;17.956;2024-02-14T06:46:06;43.00;;;19.30;;
77010;SDS011;65945;53.148;17.956;2024-02-14T06:48:33;48.40;;;21.70;;
77010;SDS011;65945;53.148;17.956;2024-02-14T06:51:00;45.40;;;22.60;;
77010;SDS011;65945;53.148;17.956;2024-02-14T06:53:27;45.70;;;22.90;;
77010;SDS011;65945;53.148;17.956;2024-02-14T06:55:53;45.00;;;21.60;;
77010;SDS011;65945;53.148;17.956;2024-02-14T06:58:20;42.10;;;21.30;;
77010;SDS011;65945;53.148;17.956;2024-02-14T07:00:47;40.40;;;21.10;;
77010;SDS011;65945;53.148;17.956;2024-02-14T07:03:13;41.40;;;20.50;;
77010;SDS011;65945;53.148;17.956;2024-02-14T07:05:40;38.10;;;19.60;;
77010;SDS011;65945;53.148;17.956;2024-02-14T07:08:08;42.10;;;19.30;;
77010;SDS011;65945;53.148;17.956;2024-02-14T07:10:34;39.10;;;19.70;;
77010;SDS011;65945;53.148;17.956;2024-02-14T07:13:01;44.40;;;22.80;;
77010;SDS011;65945;53.148;17.956;2024-02-14T07:15:29;48.30;;;23.10;;
77010;SDS011;65945;53.148;17.956;2024-02-14T07:17:56;44.60;;;23.10;;
77010;SDS011;65945;53.148;17.956;2024-02-14T07:20:24;46.90;;;24.30;;
77010;SDS011;65945;53.148;17.956;2024-02-14T07:22:54;59.00;;;26.70;;
77010;SDS011;65945;53.148;17.956;2024-02-14T07:25:22;40.60;;;22.10;;
77010;SDS011;65945;53.148;17.956;2024-02-14T07:27:49;49.30;;;24.40;;
77010;SDS011;65945;53.148;17.956;2024-02-14T07:30:16;66.90;;;28.80;;
77010;SDS011;65945;53.148;17.956;2024-02-14T07:32:43;62.50;;;28.10;;
77010;SDS011;65945;53.148;17.956;2024-02-14T07:35:11;77.60;;;34.70;;
77010;SDS011;65945;53.148;17.956;2024-02-14T07:37:39;93.10;;;38.70;;
77010;SDS011;65945;53.148;17.956;2024-02-14T07:40:09;103.20;;;41.90;;
77010;SDS011;65945;53.148;17.956;2024-02-14T07:42:37;156.00;;;52.20;;
77010;SDS011;65945;53.148;17.956;2024-02-14T07:45:04;262.10;;;84.10;;
77010;SDS011;65945;53.148;17.956;2024-02-14T07:47:31;285.20;;;90.70;;
77010;SDS011;65945;53.148;17.956;2024-02-14T07:49:57;235.50;;;76.50;;
77010;SDS011;65945;53.148;17.956;2024-02-14T07:52:24;153.30;;;53.80;;
77010;SDS011;65945;53.148;17.956;2024-02-14T07:54:52;141.20;;;50.50;;
77010;SDS011;65945;53.148;17.956;2024-02-14T07:57:21;147.40;;;51.80;;
77010;SDS011;65945;53.148;17.956;2024-02-14T07:59:49;149.50;;;51.70;;
77010;SDS011;65945;53.148;17.956;2024-02-14T08:02:17;133.80;;;48.70;;
77010;SDS011;65945;53.148;17.956;2024-02-14T08:04:44;116.00;;;47.00;;
77010;SDS011;65945;53.148;17.956;2024-02-14T08:07:11;119.10;;;46.70;;
77010;SDS011;65945;53.148;17.956;2024-02-14T08:09:38;104.10;;;41.60;;
77010;SDS011;65945;53.148;17.956;2024-02-14T08:12:05;84.40;;;38.40;;
77010;SDS011;65945;53.148;17.956;2024-02-14T08:14:33;82.60;;;38.80;;
77010;SDS011;65945;53.148;17.956;2024-02-14T08:17:00;79.60;;;36.50;;
77010;SDS011;65945;53.148;17.956;2024-02-14T08:19:27;74.30;;;37.20;;
77010;SDS011;65945;53.148;17.956;2024-02-14T08:21:53;73.20;;;34.80;;
77010;SDS011;65945;53.148;17.956;2024-02-14T08:24:27;70.10;;;35.80;;
77010;SDS011;65945;53.148;17.956;2024-02-14T08:26:54;61.20;;;31.70;;
77010;SDS011;65945;53.148;17.956;2024-02-14T08:29:21;66.50;;;32.10;;
77010;SDS011;65945;53.148;17.956;2024-02-14T08:31:48;61.30;;;32.00;;
77010;SDS011;65945;53.148;17.956;2024-02-14T08:34:14;68.20;;;32.90;;
77010;SDS011;65945;53.148;17.956;2024-02-14T08:36:42;67.40;;;34.10;;
77010;SDS011;65945;53.148;17.956;2024-02-14T08:39:09;67.80;;;33.10;;
77010;SDS011;65945;53.148;17.956;2024-02-14T08:41:37;62.90;;;31.80;;
77010;SDS011;65945;53.148;17.956;2024-02-14T08:44:12;58.90;;;32.50;;
77010;SDS011;65945;53.148;17.956;2024-02-14T08:46:40;62.40;;;32.10;;
77010;SDS011;65945;53.148;17.956;2024-02-14T08:49:08;66.60;;;34.80;;
77010;SDS011;65945;53.148;17.956;2024-02-14T08:51:35;60.50;;;30.80;;
77010;SDS011;65945;53.148;17.956;2024-02-14T08:54:06;63.30;;;30.80;;
77010;SDS011;65945;53.148;17.956;2024-02-14T08:56:33;56.50;;;28.00;;
77010;SDS011;65945;53.148;17.956;2024-02-14T08:59:00;51.80;;;24.90;;
77010;SDS011;65945;53.148;17.956;2024-02-14T09:01:29;46.90;;;24.10;;
77010;SDS011;65945;53.148;17.956;2024-02-14T09:03:56;39.00;;;20.60;;
77010;SDS011;65945;53.148;17.956;2024-02-14T09:06:23;43.20;;;21.10;;
77010;SDS011;65945;53.148;17.956;2024-02-14T09:08:50;50.40;;;25.40;;
77010;SDS011;65945;53.148;17.956;2024-02-14T09:11:17;47.90;;;23.20;;
77010;SDS011;65945;53.148;17.956;2024-02-14T09:13:44;50.90;;;23.30;;
77010;SDS011;65945;53.148;17.956;2024-02-14T09:16:13;52.80;;;23.20;;
77010;SDS011;65945;53.148;17.956;2024-02-14T09:18:41;43.10;;;20.10;;
77010;SDS011;65945;53.148;17.956;2024-02-14T09:21:08;47.80;;;20.50;;
77010;SDS011;65945;53.148;17.956;2024-02-14T09:23:35;41.00;;;20.60;;
77010;SDS011;65945;53.148;17.956;2024-02-14T09:26:05;33.70;;;18.50;;
77010;SDS011;65945;53.148;17.956;2024-02-14T09:28:33;40.00;;;17.70;;
77010;SDS011;65945;53.148;17.956;2024-02-14T09:31:01;30.70;;;16.00;;
77010;SDS011;65945;53.148;17.956;2024-02-14T09:33:30;28.50;;;15.40;;
77010;SDS011;65945;53.148;17.956;2024-02-14T09:35:57;32.20;;;16.20;;
77010;SDS011;65945;53.148;17.956;2024-02-14T09:38:23;35.60;;;15.70;;
77010;SDS011;65945;53.148;17.956;2024-02-14T09:40:50;38.80;;;16.80;;
77010;SDS011;65945;53.148;17.956;2024-02-14T09:46:06;30.20;;;12.80;;
77010;SDS011;65945;53.148;17.956;2024-02-14T09:48:34;27.50;;;12.20;;
77010;SDS011;65945;53.148;17.956;2024-02-14T09:51:03;31.20;;;13.80;;
77010;SDS011;65945;53.148;17.956;2024-02-14T09:53:31;19.90;;;10.20;;
77010;SDS011;65945;53.148;17.956;2024-02-14T09:55:59;28.40;;;11.60;;
77010;SDS011;65945;53.148;17.956;2024-02-14T09:58:28;31.00;;;12.80;;
77010;SDS011;65945;53.148;17.956;2024-02-14T10:00:55;29.20;;;12.10;;
77010;SDS011;65945;53.148;17.956;2024-02-14T10:03:22;30.60;;;14.10;;
77010;SDS011;65945;53.148;17.956;2024-02-14T10:05:49;21.80;;;10.90;;
77010;SDS011;65945;53.148;17.956;2024-02-14T10:08:16;18.80;;;9.50;;
77010;SDS011;65945;53.148;17.956;2024-02-14T10:10:44;15.30;;;8.20;;
77010;SDS011;65945;53.148;17.956;2024-02-14T10:13:12;17.50;;;8.70;;
77010;SDS011;65945;53.148;17.956;2024-02-14T10:15:39;15.90;;;7.80;;
77010;SDS011;65945;53.148;17.956;2024-02-14T10:18:06;17.60;;;8.50;;
77010;SDS011;65945;53.148;17.956;2024-02-14T10:20:33;14.70;;;7.50;;
77010;SDS011;65945;53.148;17.956;2024-02-14T10:23:01;14.50;;;7.30;;
77010;SDS011;65945;53.148;17.956;2024-02-14T10:25:31;16.00;;;7.50;;
77010;SDS011;65945;53.148;17.956;2024-02-14T10:28:03;21.20;;;8.10;;
77010;SDS011;65945;53.148;17.956;2024-02-14T10:30:31;21.40;;;9.00;;
77010;SDS011;65945;53.148;17.956;2024-02-14T10:32:58;17.20;;;7.70;;
77010;SDS011;65945;53.148;17.956;2024-02-14T10:35:25;16.20;;;7.60;;
77010;SDS011;65945;53.148;17.956;2024-02-14T10:37:52;16.40;;;7.50;;
77010;SDS011;65945;53.148;17.956;2024-02-14T10:40:19;13.40;;;6.10;;
77010;SDS011;65945;53.148;17.956;2024-02-14T10:42:47;16.50;;;7.20;;
77010;SDS011;65945;53.148;17.956;2024-02-14T10:45:14;11.10;;;6.30;;
77010;SDS011;65945;53.148;17.956;2024-02-14T10:47:43;12.10;;;6.60;;
77010;SDS011;65945;53.148;17.956;2024-02-14T10:50:15;13.00;;;6.90;;
77010;SDS011;65945;53.148;17.956;2024-02-14T10:52:43;12.00;;;5.70;;
77010;SDS011;65945;53.148;17.956;2024-02-14T10:55:13;12.40;;;6.60;;
77010;SDS011;65945;53.148;17.956;2024-02-14T10:57:40;12.20;;;6.90;;
77010;SDS011;65945;53.148;17.956;2024-02-14T11:00:08;14.80;;;6.70;;
77010;SDS011;65945;53.148;17.956;2024-02-14T11:02:36;14.00;;;7.40;;
77010;SDS011;65945;53.148;17.956;2024-02-14T11:05:05;15.00;;;7.10;;
77010;SDS011;65945;53.148;17.956;2024-02-14T11:07:33;14.90;;;8.20;;
77010;SDS011;65945;53.148;17.956;2024-02-14T11:10:06;13.80;;;7.00;;
77010;SDS011;65945;53.148;17.956;2024-02-14T11:12:34;11.90;;;6.60;;
77010;SDS011;65945;53.148;17.956;2024-02-14T11:15:09;11.50;;;6.00;;
77010;SDS011;65945;53.148;17.956;2024-02-14T11:17:43;13.60;;;6.20;;
77010;SDS011;65945;53.148;17.956;2024-02-14T11:22:49;16.00;;;7.00;;
77010;SDS011;65945;53.148;17.956;2024-02-14T11:25:40;12.20;;;6.70;;
77010;SDS011;65945;53.148;17.956;2024-02-14T11:28:13;11.90;;;6.10;;
77010;SDS011;65945;53.148;17.956;2024-02-14T11:30:41;13.20;;;6.40;;
77010;SDS011;65945;53.148;17.956;2024-02-14T11:33:13;15.30;;;7.30;;
77010;SDS011;65945;53.148;17.956;2024-02-14T11:35:47;16.20;;;6.40;;
77010;SDS011;65945;53.148;17.956;2024-02-14T11:38:19;14.50;;;7.80;;
77010;SDS011;65945;53.148;17.956;2024-02-14T11:40:46;12.20;;;6.80;;
77010;SDS011;65945;53.148;17.956;2024-02-14T11:43:14;13.10;;;6.10;;
77010;SDS011;65945;53.148;17.956;2024-02-14T11:45:46;13.30;;;7.20;;
77010;SDS011;65945;53.148;17.956;2024-02-14T11:48:16;16.20;;;6.20;;
77010;SDS011;65945;53.148;17.956;2024-02-14T11:50:44;17.40;;;6.90;;
77010;SDS011;65945;53.148;17.956;2024-02-14T11:53:13;16.80;;;7.20;;
77010;SDS011;65945;53.148;17.956;2024-02-14T11:55:45;14.60;;;7.50;;
77010;SDS011;65945;53.148;17.956;2024-02-14T11:58:15;44.00;;;17.60;;
77010;SDS011;65945;53.148;17.956;2024-02-14T12:00:43;19.50;;;8.60;;
77010;SDS011;65945;53.148;17.956;2024-02-14T12:03:20;14.20;;;6.40;;
77010;SDS011;65945;53.148;17.956;2024-02-14T12:05:49;39.10;;;15.50;;
77010;SDS011;65945;53.148;17.956;2024-02-14T12:08:17;46.60;;;19.50;;
77010;SDS011;65945;53.148;17.956;2024-02-14T12:10:45;30.10;;;12.90;;
77010;SDS011;65945;53.148;17.956;2024-02-14T12:13:22;34.50;;;15.40;;
77010;SDS011;65945;53.148;17.956;2024-02-14T12:15:49;19.60;;;10.30;;
77010;SDS011;65945;53.148;17.956;2024-02-14T12:18:18;12.80;;;8.00;;
77010;SDS011;65945;53.148;17.956;2024-02-14T12:20:46;13.40;;;6.80;;
77010;SDS011;65945;53.148;17.956;2024-02-14T12:23:16;15.60;;;8.30;;
77010;SDS011;65945;53.148;17.956;2024-02-14T12:25:44;15.30;;;8.10;;
77010;SDS011;65945;53.148;17.956;2024-02-14T12:28:18;21.80;;;8.60;;
77010;SDS011;65945;53.148;17.956;2024-02-14T12:30:46;13.40;;;6.90;;
77010;SDS011;65945;53.148;17.956;2024-02-14T12:33:22;13.80;;;6.20;;
77010;SDS011;65945;53.148;17.956;2024-02-14T12:35:50;12.20;;;6.30;;
77010;SDS011;65945;53.148;17.956;2024-02-14T12:38:20;13.90;;;6.50;;
77010;SDS011;65945;53.148;17.956;2024-02-14T12:40:49;15.90;;;7.60;;
77010;SDS011;65945;53.148;17.956;2024-02-14T12:43:16;15.70;;;6.30;;
77010;SDS011;65945;53.148;17.956;2024-02-14T12:45:43;12.80;;;6.00;;
77010;SDS011;65945;53.148;17.956;2024-02-14T12:48:10;9.30;;;5.60;;
77010;SDS011;65945;53.148;17.956;2024-02-14T12:50:41;11.10;;;5.60;;
77010;SDS011;65945;53.148;17.956;2024-02-14T12:53:14;12.80;;;6.60;;
77010;SDS011;65945;53.148;17.956;2024-02-14T12:55:41;12.20;;;6.00;;
77010;SDS011;65945;53.148;17.956;2024-02-14T12:58:08;15.20;;;7.20;;
77010;SDS011;65945;53.148;17.956;2024-02-14T13:00:36;19.80;;;10.70;;
77010;SDS011;65945;53.148;17.956;2024-02-14T13:03:04;16.40;;;8.10;;
77010;SDS011;65945;53.148;17.956;2024-02-14T13:05:32;16.80;;;7.20;;
77010;SDS011;65945;53.148;17.956;2024-02-14T13:08:00;20.70;;;10.00;;
77010;SDS011;65945;53.148;17.956;2024-02-14T13:10:27;17.10;;;7.70;;
77010;SDS011;65945;53.148;17.956;2024-02-14T13:12:54;14.20;;;6.40;;
77010;SDS011;65945;53.148;17.956;2024-02-14T13:15:20;20.70;;;8.40;;
77010;SDS011;65945;53.148;17.956;2024-02-14T13:17:47;20.20;;;8.10;;
77010;SDS011;65945;53.148;17.956;2024-02-14T13:20:14;19.30;;;7.90;;
77010;SDS011;65945;53.148;17.956;2024-02-14T13:22:41;15.70;;;6.90;;
77010;SDS011;65945;53.148;17.956;2024-02-14T13:25:11;17.30;;;6.90;;
77010;SDS011;65945;53.148;17.956;2024-02-14T13:27:37;19.00;;;7.50;;
77010;SDS011;65945;53.148;17.956;2024-02-14T13:30:05;14.60;;;6.30;;
77010;SDS011;65945;53.148;17.956;2024-02-14T13:32:33;14.50;;;6.50;;
77010;SDS011;65945;53.148;17.956;2024-02-14T13:35:00;18.60;;;8.20;;
77010;SDS011;65945;53.148;17.956;2024-02-14T13:37:26;18.30;;;8.40;;
77010;SDS011;65945;53.148;17.956;2024-02-14T13:39:53;18.90;;;7.70;;
77010;SDS011;65945;53.148;17.956;2024-02-14T13:42:20;23.40;;;8.70;;
77010;SDS011;65945;53.148;17.956;2024-02-14T13:44:49;21.50;;;9.70;;
77010;SDS011;65945;53.148;17.956;2024-02-14T13:47:18;25.40;;;10.90;;
77010;SDS011;65945;53.148;17.956;2024-02-14T13:49:45;25.20;;;10.80;;
77010;SDS011;65945;53.148;17.956;2024-02-14T13:52:12;19.40;;;8.40;;
77010;SDS011;65945;53.148;17.956;2024-02-14T13:54:38;16.30;;;7.60;;
77010;SDS011;65945;53.148;17.956;2024-02-14T13:57:05;17.20;;;8.00;;
77010;SDS011;65945;53.148;17.956;2024-02-14T13:59:32;11.60;;;5.80;;
77010;SDS011;65945;53.148;17.956;2024-02-14T14:01:58;10.40;;;6.70;;
77010;SDS011;65945;53.148;17.956;2024-02-14T14:04:25;15.50;;;5.90;;
77010;SDS011;65945;53.148;17.956;2024-02-14T14:06:54;16.40;;;6.40;;
77010;SDS011;65945;53.148;17.956;2024-02-14T14:09:21;13.20;;;6.70;;
77010;SDS011;65945;53.148;17.956;2024-02-14T14:11:48;28.20;;;13.50;;
77010;SDS011;65945;53.148;17.956;2024-02-14T14:14:17;43.50;;;20.30;;
77010;SDS011;65945;53.148;17.956;2024-02-14T14:16:45;64.40;;;27.60;;
77010;SDS011;65945;53.148;17.956;2024-02-14T14:19:12;49.10;;;21.90;;